Time;durP1;ratioP1;P1;durP2;ratioP2;P2;SDS_P1;SDS_P2;PMS_P1;PMS_P2;Temp;Humidity;BMP_temperature;BMP_pressure;BME280_temperature;BME280_humidity;BME280_pressure;Samples;Min_cycle;Max_cycle;Signal;HPM_P1;HPM_P2
2022/07/17 00:01:20;;;;;;;5.07;1.50;;;;;;;13.98;61.27;101524.23;1690835;82;20910;-77
2022/07/17 00:03:46;;;;;;;4.13;1.50;;;;;;;13.96;61.31;101526.44;1710545;82;21734;-77
2022/07/17 00:06:14;;;;;;;11.68;1.60;;;;;;;13.96;61.32;101526.44;1735201;82;21133;-77
2022/07/17 00:08:46;;;;;;;4.87;1.20;;;;;;;13.94;61.36;101529.51;1722416;82;21045;-77
2022/07/17 00:11:13;;;;;;;3.80;1.37;;;;;;;13.91;61.36;101535.17;1734678;82;20958;-77
2022/07/17 00:13:39;;;;;;;4.87;1.70;;;;;;;13.90;61.39;101537.80;1734494;82;21057;-77
2022/07/17 00:16:06;;;;;;;4.80;1.17;;;;;;;13.86;61.39;101535.68;1718774;82;21668;-77
2022/07/17 00:18:32;;;;;;;4.90;1.27;;;;;;;13.82;61.41;101534.45;1705385;84;21108;-77
2022/07/17 00:20:59;;;;;;;3.73;1.23;;;;;;;13.76;61.44;101539.30;1707617;82;21489;-77
2022/07/17 00:23:25;;;;;;;4.23;1.30;;;;;;;13.72;61.52;101545.41;1710027;82;21524;-77
2022/07/17 00:25:51;;;;;;;5.93;1.43;;;;;;;13.71;61.58;101546.73;1706742;82;21360;-77
2022/07/17 00:28:17;;;;;;;4.20;1.30;;;;;;;13.67;61.61;101547.22;1705648;82;21722;-77
2022/07/17 00:30:43;;;;;;;7.67;1.30;;;;;;;13.67;61.64;101552.86;1705939;83;21045;-77
2022/07/17 00:33:09;;;;;;;4.87;1.20;;;;;;;13.63;61.67;101555.08;1706024;82;21036;-77
2022/07/17 00:35:35;;;;;;;6.40;1.37;;;;;;;13.60;61.73;101558.58;1705747;82;21722;-77
2022/07/17 00:38:02;;;;;;;3.00;1.03;;;;;;;13.55;61.70;101559.08;1705926;84;21048;-77
2022/07/17 00:40:28;;;;;;;3.35;1.12;;;;;;;13.52;61.79;101559.11;1705805;84;21037;-77
2022/07/17 00:42:54;;;;;;;3.87;1.50;;;;;;;13.47;61.83;101564.41;1731605;82;21018;-77
2022/07/17 00:45:24;;;;;;;7.43;1.53;;;;;;;13.45;61.86;101564.86;1705904;82;20950;-77
2022/07/17 00:47:56;;;;;;;5.67;1.45;;;;;;;13.43;61.93;101561.42;1705385;83;21049;-77
2022/07/17 00:50:36;;;;;;;7.70;1.42;;;;;;;13.43;61.97;101565.31;1705599;84;21063;-77
2022/07/17 00:53:03;;;;;;;6.92;1.62;;;;;;;13.39;61.99;101563.64;1706464;82;21576;-77
2022/07/17 00:55:31;;;;;;;3.72;1.00;;;;;;;13.39;62.05;101558.44;1718521;82;21050;-77
2022/07/17 00:58:00;;;;;;;5.47;1.37;;;;;;;13.39;62.07;101562.78;1706694;82;21025;-77
2022/07/17 01:00:27;;;;;;;6.30;0.93;;;;;;;13.36;62.11;101570.17;1726932;82;21053;-78
2022/07/17 01:02:54;;;;;;;6.00;1.20;;;;;;;13.37;62.18;101565.83;1719176;82;21085;-77
2022/07/17 01:05:22;;;;;;;4.55;1.37;;;;;;;13.34;62.21;101567.17;1707312;82;21044;-77
2022/07/17 01:07:50;;;;;;;4.05;1.40;;;;;;;13.33;62.23;101574.54;1718930;82;21461;-77
2022/07/17 01:10:17;;;;;;;7.28;1.27;;;;;;;13.31;62.25;101568.50;1705938;84;20985;-77
2022/07/17 01:12:45;;;;;;;10.85;1.50;;;;;;;13.29;62.32;101571.12;1728641;82;21045;-77
2022/07/17 01:15:15;;;;;;;3.83;1.12;;;;;;;13.27;62.38;101570.27;1707880;82;21092;-77
2022/07/17 01:17:43;;;;;;;5.20;1.50;;;;;;;13.25;62.42;101570.30;1734952;82;21120;-77
2022/07/17 01:20:11;;;;;;;3.80;1.00;;;;;;;13.25;62.41;101573.33;1723614;82;20970;-77
2022/07/17 01:22:49;;;;;;;7.80;1.47;;;;;;;13.24;62.46;101571.61;1740234;80;21050;-77
2022/07/17 01:25:18;;;;;;;4.00;1.12;;;;;;;13.22;62.50;101570.33;1735140;82;21084;-77
2022/07/17 01:27:45;;;;;;;7.15;1.00;;;;;;;13.21;62.55;101572.50;1718904;82;21668;-77
2022/07/17 01:30:12;;;;;;;5.03;1.30;;;;;;;13.20;62.57;101577.72;1689214;83;21517;-77
2022/07/17 01:32:41;;;;;;;6.20;1.60;;;;;;;13.17;62.61;101578.61;1710306;83;21068;-77
2022/07/17 01:35:11;;;;;;;5.00;1.20;;;;;;;13.14;62.63;101573.41;1724392;82;21399;-77
2022/07/17 01:37:39;;;;;;;4.05;1.02;;;;;;;13.14;62.68;101577.31;1707075;82;21430;-77
2022/07/17 01:40:08;;;;;;;4.47;1.00;;;;;;;13.10;62.68;101572.17;1707054;82;21526;-77
2022/07/17 01:42:34;;;;;;;6.87;1.17;;;;;;;13.10;62.80;101573.47;1730819;82;20879;-77
2022/07/17 01:45:01;;;;;;;5.37;1.20;;;;;;;13.06;62.79;101570.48;1723640;82;21043;-77
2022/07/17 01:47:28;;;;;;;5.05;1.15;;;;;;;13.06;62.86;101574.38;1707111;82;21494;-77
2022/07/17 01:49:56;;;;;;;5.12;1.50;;;;;;;13.06;62.85;101567.88;1707191;84;20883;-77
2022/07/17 01:52:25;;;;;;;4.60;1.17;;;;;;;13.05;62.89;101573.52;1709663;82;20926;-77
2022/07/17 01:54:52;;;;;;;4.40;1.15;;;;;;;13.04;62.92;101568.34;1724878;82;21402;-77
2022/07/17 01:57:19;;;;;;;4.47;1.05;;;;;;;13.02;62.92;101570.95;1683725;83;21560;-77
2022/07/17 01:59:45;;;;;;;5.40;1.00;;;;;;;13.00;63.00;101570.58;1698262;83;25024;-77
2022/07/17 02:02:15;;;;;;;10.33;1.60;;;;;;;12.97;63.03;101568.02;1712072;83;21390;-77
2022/07/17 02:04:42;;;;;;;4.65;1.25;;;;;;;12.95;63.08;101565.87;1714611;82;21499;-77
2022/07/17 02:07:09;;;;;;;2.50;0.80;;;;;;;12.92;63.13;101564.17;1683510;84;22428;-77
2022/07/17 02:09:35;;;;;;;5.40;1.00;;;;;;;12.92;63.16;101564.17;1683476;84;20905;-77
2022/07/17 02:12:02;;;;;;;7.80;1.20;;;;;;;12.96;63.18;101568.89;1692580;83;20885;-77
2022/07/17 02:14:28;;;;;;;4.95;1.98;;;;;;;12.96;63.20;101568.89;1694428;83;21347;-77
2022/07/17 02:16:54;;;;;;;6.33;1.45;;;;;;;12.95;63.25;101575.82;1711404;83;20944;-77
2022/07/17 02:19:21;;;;;;;7.43;1.27;;;;;;;12.93;63.28;101567.19;1710459;83;20890;-77
2022/07/17 02:21:47;;;;;;;4.67;1.20;;;;;;;12.91;63.36;101564.61;1711944;83;21389;-77
2022/07/17 02:24:14;;;;;;;4.50;1.32;;;;;;;12.91;63.38;101570.23;1711967;83;21382;-77
2022/07/17 02:26:40;;;;;;;6.20;2.10;;;;;;;12.90;63.41;101571.97;1706216;83;21413;-77
2022/07/17 02:29:07;;;;;;;2.47;1.00;;;;;;;12.91;63.43;101566.34;1706731;83;21406;-77
2022/07/17 02:31:33;;;;;;;7.28;1.22;;;;;;;12.92;63.45;101572.81;1700927;83;21401;-77
2022/07/17 02:33:59;;;;;;;2.97;1.70;;;;;;;12.91;63.47;101577.59;1682657;83;20885;-77
2022/07/17 02:36:25;;;;;;;6.53;1.20;;;;;;;12.89;63.48;101578.04;1683089;83;20929;-77
2022/07/17 02:38:51;;;;;;;3.57;1.00;;;;;;;12.87;63.55;101583.69;1683600;83;20956;-77
2022/07/17 02:41:17;;;;;;;4.20;1.03;;;;;;;12.87;63.59;101588.02;1690419;83;20941;-77
2022/07/17 02:43:44;;;;;;;5.30;1.12;;;;;;;12.86;63.60;101582.40;1692433;83;21433;-77
2022/07/17 02:46:10;;;;;;;9.65;1.32;;;;;;;12.85;63.63;101584.57;1711405;83;20898;-77
2022/07/17 02:48:36;;;;;;;2.93;0.90;;;;;;;12.85;63.64;101580.24;1711483;83;20962;-77
2022/07/17 02:51:03;;;;;;;7.00;1.00;;;;;;;12.84;63.66;101584.16;1704880;83;21664;-77
2022/07/17 02:53:29;;;;;;;7.35;1.22;;;;;;;12.80;63.70;101584.62;1682903;83;20949;-77
2022/07/17 02:55:55;;;;;;;7.40;1.40;;;;;;;12.78;63.72;101582.47;1683204;84;21052;-77
2022/07/17 02:58:21;;;;;;;3.37;1.22;;;;;;;12.77;63.79;101582.48;1682794;85;27154;-77
2022/07/17 03:00:48;;;;;;;8.50;1.10;;;;;;;12.75;63.80;101584.23;1707878;83;20941;-77
2022/07/17 03:03:14;;;;;;;5.63;1.20;;;;;;;12.74;63.84;101591.59;1711567;83;21224;-77
2022/07/17 03:05:40;;;;;;;4.50;1.02;;;;;;;12.74;63.86;101582.08;1688304;83;20961;-77
2022/07/17 03:08:06;;;;;;;6.90;1.47;;;;;;;12.72;63.86;101586.86;1688287;83;20905;-77
2022/07/17 03:10:32;;;;;;;5.58;1.27;;;;;;;12.72;63.89;101584.27;1688127;83;21016;-77
2022/07/17 03:12:58;;;;;;;5.03;1.07;;;;;;;12.70;63.91;101591.20;1698496;83;21092;-77
2022/07/17 03:15:24;;;;;;;5.57;1.23;;;;;;;12.70;63.95;101588.61;1681310;84;21292;-77
2022/07/17 03:17:51;;;;;;;6.62;1.37;;;;;;;12.70;63.97;101592.50;1685410;83;20929;-77
2022/07/17 03:20:17;;;;;;;4.00;0.83;;;;;;;12.71;63.97;101590.33;1683087;83;20895;-77
2022/07/17 03:22:43;;;;;;;9.13;1.70;;;;;;;12.70;64.04;101588.61;1683028;85;20917;-77
2022/07/17 03:25:09;;;;;;;5.25;1.37;;;;;;;12.71;64.05;101598.11;1664957;85;20910;-77
2022/07/17 03:27:36;;;;;;;4.00;1.10;;;;;;;12.73;64.09;101595.92;1694255;83;26314;-77
2022/07/17 03:30:02;;;;;;;3.40;1.07;;;;;;;12.76;64.10;101596.34;1716923;82;20913;-77
2022/07/17 03:32:28;;;;;;;9.08;1.42;;;;;;;12.75;64.14;101599.80;1593598;81;10000330;-77
2022/07/17 03:34:54;;;;;;;4.62;1.30;;;;;;;12.76;64.16;101598.94;1707396;83;20879;-77
2022/07/17 03:37:20;;;;;;;4.30;1.20;;;;;;;12.77;64.20;101600.66;1679860;84;20851;-77
2022/07/17 03:39:46;;;;;;;8.23;1.10;;;;;;;12.78;64.20;101607.56;1683560;85;20905;-77
2022/07/17 03:42:13;;;;;;;4.37;1.03;;;;;;;12.79;64.24;101608.84;1702478;83;20929;-77
2022/07/17 03:44:41;;;;;;;4.28;1.00;;;;;;;12.81;64.28;101612.73;1709155;83;21409;-77
2022/07/17 03:47:08;;;;;;;6.20;1.20;;;;;;;12.80;64.31;101604.08;1695878;83;20949;-77
2022/07/17 03:49:33;;;;;;;5.27;1.20;;;;;;;12.82;64.33;101604.06;1693921;83;20841;-77
2022/07/17 03:52:00;;;;;;;8.15;1.60;;;;;;;12.85;64.36;101609.23;1683555;83;20941;-77
2022/07/17 03:54:27;;;;;;;4.50;1.27;;;;;;;12.87;64.38;101612.67;1684109;83;20866;-77
2022/07/17 03:56:53;;;;;;;8.37;1.20;;;;;;;12.89;64.44;101616.98;1691331;82;20947;-77
2022/07/17 03:59:20;;;;;;;4.58;1.50;;;;;;;12.91;64.45;101624.31;1712138;82;21060;-77
2022/07/17 04:01:47;;;;;;;9.83;2.05;;;;;;;12.92;64.47;101619.55;1742205;80;20918;-77
2022/07/17 04:04:13;;;;;;;4.95;1.35;;;;;;;12.96;64.46;101626.87;1735126;82;20954;-77
2022/07/17 04:06:39;;;;;;;7.50;1.55;;;;;;;12.97;64.50;101633.78;1726263;82;20942;-77
2022/07/17 04:09:06;;;;;;;7.10;1.67;;;;;;;12.97;64.50;101633.78;1736960;82;20891;-77
2022/07/17 04:11:33;;;;;;;3.72;1.30;;;;;;;13.00;64.56;101636.78;1736672;82;20867;-77
2022/07/17 04:13:59;;;;;;;10.10;1.70;;;;;;;13.05;64.69;101630.64;1736785;82;21345;-77
2022/07/17 04:16:25;;;;;;;7.93;1.57;;;;;;;13.23;64.73;101632.22;1714982;82;20941;-77
2022/07/17 04:18:51;;;;;;;7.40;1.33;;;;;;;13.39;64.72;101631.19;1707431;84;20922;-77
2022/07/17 04:21:17;;;;;;;6.62;1.92;;;;;;;13.48;64.69;101631.08;1708532;82;21127;-77
2022/07/17 04:23:45;;;;;;;7.70;1.50;;;;;;;13.55;64.65;101635.30;1707306;82;20898;-77
2022/07/17 04:26:11;;;;;;;6.13;1.23;;;;;;;13.61;64.63;101641.30;1707553;84;20954;-77
2022/07/17 04:28:40;;;;;;;6.70;1.40;;;;;;;13.61;64.67;101635.66;1707397;83;20922;-77
2022/07/17 04:31:07;;;;;;;4.00;1.40;;;;;;;13.62;64.69;101643.02;1713511;82;21625;-77
2022/07/17 04:33:33;;;;;;;;;;;;;;;13.64;64.72;101639.52;1715530;82;20914;-77
2022/07/17 04:35:59;;;;;;;14.30;1.98;;;;;;;13.67;64.99;101643.38;1706950;84;20086;-77
2022/07/17 04:38:25;;;;;;;5.23;1.97;;;;;;;13.69;64.75;101648.56;1707609;82;20910;-77
2022/07/17 04:40:58;;;;;;;4.12;1.52;;;;;;;13.72;64.77;101643.33;1723789;82;20887;-77
2022/07/17 04:43:25;;;;;;;4.23;1.60;;;;;;;13.73;64.76;101639.41;1732635;82;21104;-77
2022/07/17 04:45:51;;;;;;;5.90;1.85;;;;;;;13.75;64.80;101645.45;1711256;82;21049;-77
2022/07/17 04:48:17;;;;;;;5.40;1.60;;;;;;;13.79;64.81;101650.17;1733378;82;21049;-77
2022/07/17 04:50:43;;;;;;;6.83;1.80;;;;;;;13.82;64.83;101652.30;1711488;82;21613;-77
2022/07/17 04:53:11;;;;;;;7.22;1.70;;;;;;;13.84;64.83;101658.77;1704515;83;21117;-77
2022/07/17 04:55:37;;;;;;;6.83;1.47;;;;;;;13.85;64.85;101655.30;1705106;84;20926;-77
2022/07/17 04:58:03;;;;;;;5.92;1.70;;;;;;;13.85;64.85;101658.75;1705118;82;21036;-77
2022/07/17 05:00:29;;;;;;;7.60;1.77;;;;;;;13.87;64.89;101658.73;1709575;82;21148;-77
2022/07/17 05:02:55;;;;;;;8.27;1.87;;;;;;;13.92;64.92;101667.34;1715821;82;21663;-77
2022/07/17 05:05:22;;;;;;;7.13;1.60;;;;;;;13.97;64.98;101669.88;1705285;84;20890;-77
2022/07/17 05:07:48;;;;;;;6.40;1.82;;;;;;;14.03;65.00;101674.56;1705269;82;21029;-77
2022/07/17 05:10:14;;;;;;;4.75;1.57;;;;;;;14.14;65.01;101674.38;1706777;82;21426;-77
2022/07/17 05:12:40;;;;;;;4.03;1.37;;;;;;;14.29;65.06;101672.88;1725930;82;20950;-77
2022/07/17 05:15:07;;;;;;;4.67;1.50;;;;;;;14.50;65.14;101668.69;1707091;82;20938;-77
2022/07/17 05:17:33;;;;;;;;;;;;;;;14.87;65.19;101674.58;1725254;82;21140;-77
2022/07/17 05:19:59;;;;;;;5.40;1.30;;;;;;;15.43;65.30;101674.84;1736413;82;20166;-78
2022/07/17 05:22:25;;;;;;;5.33;1.37;;;;;;;16.05;65.17;101678.38;1736335;82;20906;-78
2022/07/17 05:24:52;;;;;;;6.40;1.77;;;;;;;16.67;65.01;101681.29;1721229;82;20954;-78
2022/07/17 05:27:18;;;;;;;6.33;1.63;;;;;;;17.25;64.87;101684.58;1721022;82;20870;-78
2022/07/17 05:29:44;;;;;;;4.70;1.42;;;;;;;17.84;64.74;101692.53;1735564;82;20958;-77
2022/07/17 05:32:10;;;;;;;4.77;1.40;;;;;;;18.36;64.52;101697.50;1714684;82;20937;-77
2022/07/17 05:34:36;;;;;;;8.33;1.70;;;;;;;18.91;64.43;101700.98;1680774;84;21044;-77
2022/07/17 05:37:02;;;;;;;10.97;1.83;;;;;;;19.35;64.20;101688.95;1681271;83;20893;-77
2022/07/17 05:39:29;;;;;;;5.72;1.60;;;;;;;19.77;64.09;101686.55;1708161;83;21049;-77
2022/07/17 05:41:55;;;;;;;7.80;1.10;;;;;;;20.16;63.81;101689.44;1709682;83;20968;-78
2022/07/17 05:44:21;;;;;;;2.70;1.10;;;;;;;20.53;63.74;101690.63;1709761;83;21000;-78
2022/07/17 05:46:47;;;;;;;4.25;1.02;;;;;;;20.89;63.40;101701.39;1706731;83;21044;-78
2022/07/17 05:49:13;;;;;;;6.10;1.45;;;;;;;21.24;63.42;101701.25;1681638;83;21036;-78
2022/07/17 05:51:39;;;;;;;6.10;1.30;;;;;;;21.50;63.06;101706.20;1681784;83;21072;-78
2022/07/17 05:54:05;;;;;;;5.53;1.50;;;;;;;21.79;62.96;101706.23;1680990;83;21120;-78
2022/07/17 05:56:31;;;;;;;6.13;1.40;;;;;;;22.04;62.57;101705.50;1694373;83;21111;-78
2022/07/17 05:58:57;;;;;;;6.10;1.40;;;;;;;22.35;62.65;101709.33;1698570;83;21051;-78
2022/07/17 06:01:31;;;;;;;5.25;1.20;;;;;;;22.66;62.39;101711.31;1707328;82;21056;-78
2022/07/17 06:03:57;;;;;;;4.87;1.90;;;;;;;23.04;62.07;101712.06;1726889;82;21100;-78
2022/07/17 06:06:23;;;;;;;4.12;1.15;;;;;;;23.30;61.81;101716.02;1720447;81;21385;-78
2022/07/17 06:08:50;;;;;;;3.47;1.43;;;;;;;23.53;61.54;101722.27;1684429;83;21119;-78
2022/07/17 06:11:16;;;;;;;8.20;1.20;;;;;;;23.79;60.75;101720.05;1688401;83;21040;-78
2022/07/17 06:13:42;;;;;;;8.10;1.70;;;;;;;23.79;60.75;101720.05;1696179;83;21626;-78
2022/07/17 06:16:09;;;;;;;5.58;1.35;;;;;;;23.93;60.65;101724.09;1662585;84;21071;-79
2022/07/17 06:18:35;;;;;;;5.50;1.40;;;;;;;24.02;60.40;101722.27;1680823;84;21532;-78
2022/07/17 06:21:01;;;;;;;4.65;1.42;;;;;;;24.20;60.22;101719.94;1680957;83;21104;-78
2022/07/17 06:23:27;;;;;;;4.30;1.22;;;;;;;24.39;59.92;101723.30;1680694;83;21096;-78
2022/07/17 06:25:53;;;;;;;4.87;1.30;;;;;;;24.57;59.63;101727.98;1680675;85;20941;-78
2022/07/17 06:28:19;;;;;;;3.83;1.02;;;;;;;24.78;59.47;101721.95;1680720;85;21079;-78
2022/07/17 06:30:45;;;;;;;5.53;1.33;;;;;;;25.00;59.11;101738.75;1687048;83;21103;-78
2022/07/17 06:33:11;;;;;;;4.33;1.25;;;;;;;25.06;58.66;101730.45;1708924;83;21096;-78
2022/07/17 06:35:37;;;;;;;4.40;0.80;;;;;;;25.11;58.29;101731.51;1709381;83;21043;-78
2022/07/17 06:38:04;;;;;;;2.83;1.30;;;;;;;25.16;58.17;101732.94;1688774;83;20957;-78
2022/07/17 06:40:30;;;;;;;;;;;;;;;25.33;58.02;101731.94;1706294;83;21056;-78
2022/07/17 06:42:57;;;;;;;5.35;1.45;;;;;;;25.51;57.13;101727.30;1695269;83;20219;-78
2022/07/17 06:45:23;;;;;;;10.25;1.05;;;;;;;25.69;57.51;101732.36;1709672;83;21036;-78
2022/07/17 06:47:50;;;;;;;3.60;1.00;;;;;;;25.86;57.14;101732.64;1697925;83;21471;-78
2022/07/17 06:50:16;;;;;;;3.60;1.20;;;;;;;26.05;56.88;101741.11;1709149;83;27025;-78
2022/07/17 06:52:42;;;;;;;3.55;1.32;;;;;;;26.34;56.66;101749.91;1709626;83;21064;-78
2022/07/17 06:55:09;;;;;;;4.20;1.15;;;;;;;26.66;56.24;101743.81;1706994;83;21100;-78
2022/07/17 06:57:37;;;;;;;8.20;1.17;;;;;;;26.88;55.82;101739.75;1698368;83;21500;-78
2022/07/17 07:00:05;;;;;;;5.25;1.50;;;;;;;26.95;55.46;101743.70;1680838;85;21040;-77
2022/07/17 07:02:31;;;;;;;6.08;1.98;;;;;;;27.06;55.13;101739.84;1709375;82;21060;-77
2022/07/17 07:04:58;;;;;;;3.70;1.57;;;;;;;27.20;54.73;101738.92;1692352;82;21508;-78
2022/07/17 07:07:24;;;;;;;6.70;1.37;;;;;;;27.41;54.42;101737.45;1680837;83;20865;-78
2022/07/17 07:09:50;;;;;;;5.33;1.87;;;;;;;27.44;54.06;101741.70;1680833;84;21079;-78
2022/07/17 07:12:16;;;;;;;5.43;1.50;;;;;;;27.04;53.09;101741.28;1683806;83;20965;-78
2022/07/17 07:14:43;;;;;;;5.70;1.35;;;;;;;26.79;53.33;101730.59;1681579;83;21036;-79
2022/07/17 07:17:09;;;;;;;5.65;1.35;;;;;;;26.87;53.39;101733.59;1680819;83;21092;-78
2022/07/17 07:19:35;;;;;;;6.92;1.50;;;;;;;26.61;52.65;101735.30;1682297;83;21275;-78
2022/07/17 07:22:01;;;;;;;3.65;1.47;;;;;;;26.21;52.61;101746.77;1709651;83;21048;-78
2022/07/17 07:24:27;;;;;;;;;;;;;;;26.34;52.47;101743.28;1711980;83;21009;-78
2022/07/17 07:26:54;;;;;;;4.45;1.17;;;;;;;26.30;52.22;101743.54;1709628;83;27713;-78
2022/07/17 07:29:20;;;;;;;5.35;0.90;;;;;;;26.46;52.16;101742.97;1697662;83;21127;-78
2022/07/17 07:31:47;;;;;;;8.20;1.15;;;;;;;26.24;51.70;101735.50;1701760;83;21430;-78
2022/07/17 07:34:14;;;;;;;6.00;1.10;;;;;;;25.83;51.41;101739.93;1710579;83;21089;-78
2022/07/17 07:36:40;;;;;;;4.85;1.02;;;;;;;25.97;51.05;101741.25;1694236;83;21524;-78
2022/07/17 07:39:06;;;;;;;5.80;1.20;;;;;;;25.64;50.92;101743.70;1681137;83;21076;-78
2022/07/17 07:41:34;;;;;;;5.70;1.22;;;;;;;25.53;50.68;101739.50;1698244;83;21076;-78
2022/07/17 07:44:00;;;;;;;3.67;1.20;;;;;;;25.08;50.24;101741.33;1709608;83;21103;-78
2022/07/17 07:46:26;;;;;;;3.30;0.90;;;;;;;24.52;50.03;101747.70;1691964;83;21108;-78
2022/07/17 07:48:58;;;;;;;3.95;1.40;;;;;;;24.46;50.31;101747.58;1663281;85;21016;-78
2022/07/17 07:51:24;;;;;;;4.37;1.00;;;;;;;24.83;49.87;101748.98;1681232;85;20894;-78
2022/07/17 07:53:50;;;;;;;5.67;1.20;;;;;;;24.83;49.40;101752.11;1699673;83;21760;-78
2022/07/17 07:56:16;;;;;;;6.67;1.30;;;;;;;24.54;49.22;101760.37;1709661;83;21023;-78
2022/07/17 07:58:43;;;;;;;3.90;0.95;;;;;;;24.19;49.04;101756.56;1709557;83;21763;-79
2022/07/17 08:01:09;;;;;;;7.05;1.57;;;;;;;23.81;48.94;101759.11;1709343;83;21049;-78
2022/07/17 08:03:35;;;;;;;3.33;1.50;;;;;;;23.51;48.94;101764.18;1684060;83;21046;-78
2022/07/17 08:06:01;;;;;;;4.77;1.30;;;;;;;23.29;48.85;101773.69;1681318;84;21115;-78
2022/07/17 08:08:28;;;;;;;3.10;1.00;;;;;;;23.22;48.55;101777.10;1680794;85;21047;-78
2022/07/17 08:10:54;;;;;;;7.67;1.45;;;;;;;23.07;48.59;101774.77;1684388;83;21012;-78
2022/07/17 08:13:20;;;;;;;4.22;0.90;;;;;;;23.25;48.67;101777.41;1689116;83;22225;-78
2022/07/17 08:15:47;;;;;;;5.60;1.10;;;;;;;23.33;48.16;101784.02;1682484;83;21100;-78
2022/07/17 08:18:13;;;;;;;5.87;0.97;;;;;;;23.12;48.03;101777.17;1693836;83;20893;-78
2022/07/17 08:20:39;;;;;;;2.95;1.05;;;;;;;22.94;47.92;101788.63;1680958;84;21283;-78
2022/07/17 08:23:05;;;;;;;5.77;0.90;;;;;;;22.72;47.86;101790.13;1695779;83;21026;-78
2022/07/17 08:25:33;;;;;;;3.17;0.95;;;;;;;22.93;48.04;101792.20;1690602;83;21066;-78
2022/07/17 08:27:59;;;;;;;3.10;1.10;;;;;;;23.44;47.94;101796.17;1683957;83;20956;-78
2022/07/17 08:30:25;;;;;;;2.20;1.05;;;;;;;23.84;47.58;101780.94;1683055;83;20957;-78
2022/07/17 08:32:51;;;;;;;11.83;1.50;;;;;;;23.83;47.45;101787.62;1683548;85;21499;-78
2022/07/17 08:35:19;;;;;;;3.72;1.00;;;;;;;23.66;47.41;101795.11;1667632;85;21394;-78
2022/07/17 08:37:52;;;;;;;5.70;1.30;;;;;;;23.39;47.15;101800.02;1686726;83;20877;-78
2022/07/17 08:40:25;;;;;;;2.42;0.88;;;;;;;23.04;47.15;101798.66;1683452;85;21774;-78
2022/07/17 08:42:52;;;;;;;3.55;0.82;;;;;;;23.03;47.34;101802.22;1707455;83;21476;-78
2022/07/17 08:45:19;;;;;;;2.98;0.85;;;;;;;23.37;47.24;101791.31;1709376;81;20909;-78
2022/07/17 08:47:46;;;;;;;2.77;1.20;;;;;;;23.38;47.08;101793.02;1709605;80;561741;-78
2022/07/17 08:50:13;;;;;;;2.75;0.80;;;;;;;23.24;46.99;101791.08;1692343;82;20951;-78
2022/07/17 08:52:41;;;;;;;4.92;1.27;;;;;;;22.94;46.63;101799.18;1690683;83;20884;-78
2022/07/17 08:55:13;;;;;;;4.67;1.02;;;;;;;22.53;46.43;101802.47;1690723;83;20872;-78
2022/07/17 08:57:43;;;;;;;5.72;1.12;;;;;;;22.20;46.47;101797.00;1700514;83;21420;-78
2022/07/17 09:00:18;;;;;;;4.53;0.93;;;;;;;21.94;46.51;101795.05;1719695;82;20924;-78
2022/07/17 09:03:06;;;;;;;3.67;1.15;;;;;;;21.99;46.53;101791.75;1719817;82;21424;-78
2022/07/17 09:05:38;;;;;;;3.60;0.88;;;;;;;22.16;46.65;101781.80;1715584;82;21538;-78
2022/07/17 09:08:08;;;;;;;3.77;0.90;;;;;;;22.34;46.58;101786.69;1690233;82;22173;-78
2022/07/17 09:10:38;;;;;;;6.37;0.95;;;;;;;22.35;46.52;101787.94;1689764;83;21018;-78
2022/07/17 09:13:20;;;;;;;5.62;0.90;;;;;;;22.21;46.20;101788.17;1706192;83;21526;-78
2022/07/17 09:15:49;;;;;;;3.72;0.90;;;;;;;22.13;46.39;101792.02;1709263;82;21523;-78
2022/07/17 09:18:19;;;;;;;4.85;1.05;;;;;;;22.19;46.33;101798.78;1706898;83;21548;-78
2022/07/17 09:20:50;;;;;;;2.42;0.72;;;;;;;22.22;46.23;101798.64;1684245;83;21067;-78
2022/07/17 09:23:20;;;;;;;3.80;1.47;;;;;;;22.22;46.15;101797.33;1688588;83;21558;-78
2022/07/17 09:25:49;;;;;;;2.05;0.72;;;;;;;22.24;46.17;101791.98;1713394;83;21074;-78
2022/07/17 09:28:17;;;;;;;4.10;0.80;;;;;;;22.21;46.07;101796.08;1717771;82;21447;-78
2022/07/17 09:30:54;;;;;;;3.05;0.70;;;;;;;22.06;45.90;101798.48;1703506;82;21450;-78
2022/07/17 09:33:24;;;;;;;3.42;0.80;;;;;;;21.94;45.93;101792.87;1689150;83;25009;-78
2022/07/17 09:36:09;;;;;;;5.83;1.00;;;;;;;21.80;45.88;101791.73;1688598;83;21477;-78
2022/07/17 09:38:38;;;;;;;3.60;0.80;;;;;;;21.80;45.99;101792.20;1688932;83;21553;-78
2022/07/17 09:41:09;;;;;;;2.98;0.95;;;;;;;21.82;45.76;101793.45;1694148;83;21629;-78
2022/07/17 09:43:47;;;;;;;3.87;0.60;;;;;;;21.74;45.75;101798.58;1711425;82;21063;-78
2022/07/17 09:46:23;;;;;;;4.58;1.02;;;;;;;21.80;45.79;101798.31;1718040;82;21478;-78
2022/07/17 09:48:59;;;;;;;3.02;0.75;;;;;;;21.87;45.74;101803.28;1709399;83;21451;-78
2022/07/17 09:51:38;;;;;;;4.00;1.00;;;;;;;21.86;45.67;101798.94;1694536;82;21586;-78
2022/07/17 09:54:06;;;;;;;5.35;0.80;;;;;;;21.84;45.59;101799.47;1689168;83;21495;-78
2022/07/17 09:56:36;;;;;;;3.20;0.90;;;;;;;21.85;45.59;101799.41;1700633;83;21586;-78
2022/07/17 09:59:12;;;;;;;3.95;0.80;;;;;;;21.80;45.47;101804.91;1689506;83;21060;-78
2022/07/17 10:01:43;;;;;;;2.42;0.72;;;;;;;21.75;45.49;101800.30;1698007;83;21478;-78
2022/07/17 10:04:13;;;;;;;5.33;0.90;;;;;;;21.68;45.43;101813.79;1694803;83;21370;-78
2022/07/17 10:06:40;;;;;;;2.45;0.80;;;;;;;21.62;45.35;101810.11;1713093;83;20947;-78
2022/07/17 10:09:06;;;;;;;3.47;1.33;;;;;;;21.47;45.36;101804.57;1719442;82;20923;-78
2022/07/17 10:11:39;;;;;;;3.05;0.80;;;;;;;21.45;45.33;101798.52;1707348;83;21393;-78
2022/07/17 10:14:11;;;;;;;3.67;1.07;;;;;;;21.41;45.20;101798.70;1719589;82;20908;-78
2022/07/17 10:16:38;;;;;;;2.67;0.78;;;;;;;21.45;45.26;101798.52;1715148;82;20979;-78
2022/07/17 10:19:20;;;;;;;6.08;0.80;;;;;;;21.49;45.19;101801.88;1711488;83;21380;-78
2022/07/17 10:21:57;;;;;;;4.08;0.95;;;;;;;21.56;45.17;101795.89;1719191;82;21428;-78
2022/07/17 10:24:24;;;;;;;3.65;0.80;;;;;;;21.66;45.15;101786.22;1693538;82;20967;-78
2022/07/17 10:26:50;;;;;;;5.67;0.90;;;;;;;21.75;45.14;101788.45;1718056;83;20876;-78
2022/07/17 10:29:30;;;;;;;8.63;0.80;;;;;;;21.85;45.08;101795.91;1719963;82;20876;-78
2022/07/17 10:31:57;;;;;;;4.28;0.80;;;;;;;21.84;44.96;101798.16;1707960;82;20983;-78
2022/07/17 10:34:48;;;;;;;2.70;1.00;;;;;;;21.83;45.02;101797.79;1692216;83;21404;-77
2022/07/17 10:37:22;;;;;;;2.33;0.82;;;;;;;21.83;44.90;101791.20;1690806;83;21067;-77
2022/07/17 10:40:13;;;;;;;2.72;0.75;;;;;;;21.73;44.93;101796.88;1709696;83;21030;-77
2022/07/17 10:42:59;;;;;;;3.10;0.85;;;;;;;21.70;44.97;101801.42;1710788;83;21066;-77
2022/07/17 10:45:44;;;;;;;1.57;0.70;;;;;;;21.74;44.95;101796.41;1720076;83;20991;-77
2022/07/17 10:48:19;;;;;;;4.08;1.10;;;;;;;21.80;44.88;101800.95;1711789;82;21102;-77
2022/07/17 10:50:55;;;;;;;5.42;1.82;;;;;;;21.83;44.80;101797.33;1703659;83;21666;-77
2022/07/17 10:53:35;;;;;;;4.53;0.95;;;;;;;21.85;44.74;101800.72;1682323;84;21415;-77
2022/07/17 10:56:06;;;;;;;2.55;0.93;;;;;;;21.87;44.75;101801.97;1696284;83;21634;-77
2022/07/17 10:58:43;;;;;;;2.72;0.80;;;;;;;21.90;44.74;101805.78;1719345;82;21047;-77
2022/07/17 11:01:16;;;;;;;2.47;0.80;;;;;;;21.87;44.68;101797.55;1714747;82;21054;-77
2022/07/17 11:03:52;;;;;;;2.65;1.00;;;;;;;21.88;44.73;101795.78;1690793;83;21094;-77
2022/07/17 11:06:22;;;;;;;2.70;0.95;;;;;;;;;;1690889;84;21058;-76
2022/07/17 11:09:10;;;;;;;3.08;0.90;;;;;;;21.89;44.49;101794.86;1693454;83;21101;-78
2022/07/17 11:11:47;;;;;;;4.60;1.02;;;;;;;21.84;44.51;101800.78;1704207;83;20904;-78
2022/07/17 11:14:24;;;;;;;3.27;1.05;;;;;;;21.78;44.46;101803.25;1719837;83;20983;-78
2022/07/17 11:16:59;;;;;;;2.52;0.88;;;;;;;21.79;44.55;101806.28;1720396;82;20932;-78
2022/07/17 11:19:41;;;;;;;2.27;0.78;;;;;;;21.80;44.49;101808.00;1721603;82;20991;-78
2022/07/17 11:22:11;;;;;;;3.02;1.00;;;;;;;21.76;44.51;101808.59;1714146;82;21114;-77
2022/07/17 11:24:44;;;;;;;2.37;0.90;;;;;;;21.77;44.56;101809.45;1691018;83;21078;-77
2022/07/17 11:27:14;;;;;;;3.12;1.10;;;;;;;21.78;44.51;101804.11;1691071;83;21055;-77
2022/07/17 11:29:41;;;;;;;4.42;0.78;;;;;;;21.80;44.49;101806.68;1692143;83;21372;-77
2022/07/17 11:32:08;;;;;;;2.70;0.95;;;;;;;21.82;44.49;101815.83;1724009;81;21034;-77